Latest Weather Observations for Horn Island

IDQ60801

Issued at 6:52 am EST Friday 30 October 2020 (issued every 10 minutes, with the page automatically refreshed every 10 minutes)

About weather observations | Map of weather stations | Latest weather observations for QLD | Other Formats
Station Details ID: 027058 Name: HORN ISLAND Lat: -10.58 Lon: 142.29 Height: 4.0 m
Data from the previous 72 hours. | See also: Recent months at Horn Island
Date/Time
EST
Temp
°C
App
Temp
°C
Dew
Point
°C
Rel
Hum
%
Delta-T
°C
Wind Press
QNH
hPa
Press
MSL
hPa
Rain since
9am
mm
Dir  Spd
km/h
Gust
km/h
Spd
kts
Gust
kts
30/06:30am 25.2 29.2 22.7 86 1.7 SSE 6 7 3 4 1010.7 1010.7 0.0
30/06:00am 23.9 28.4 21.6 87 1.5 CALM 0 0 0 0 1010.3 1010.3 0.0
30/05:30am 23.8 28.3 21.5 87 1.5 CALM 0 0 0 0 1009.9 1009.9 0.0
30/05:00am 23.9 28.3 21.4 86 1.6 CALM 0 0 0 0 1009.8 1009.8 0.0
30/04:30am 23.8 28.2 21.3 86 1.6 CALM 0 0 0 0 1009.5 1009.5 0.0
30/04:00am 24.3 28.9 21.8 86 1.7 CALM 0 0 0 0 1009.3 1009.3 0.0
30/03:30am 24.5 29.2 22.0 86 1.7 CALM 0 0 0 0 1009.2 1009.2 0.0
30/03:00am 24.4 27.7 21.9 86 1.7 SSE 7 9 4 5 1009.4 1009.4 0.0
30/02:30am 25.0 29.9 22.3 85 1.8 CALM 0 0 0 0 1009.7 1009.7 0.0
30/02:00am 24.8 29.6 22.1 85 1.8 CALM 0 0 0 0 1010.0 1010.0 0.0
30/01:30am 25.4 30.3 22.3 83 2.1 CALM 0 0 0 0 1010.4 1010.4 0.0
30/01:00am 26.1 30.2 23.0 83 2.1 NE 6 9 3 5 1010.5 1010.5 0.0
30/12:30am 26.1 31.3 22.8 82 2.2 CALM 0 9 0 5 1011.2 1011.2 0.0
30/12:00am 26.4 30.5 22.9 81 2.4 ENE 6 7 3 4 1011.6 1011.6 0.0
 
Date/Time
EST
Temp
°C
App
Temp
°C
Dew
Point
°C
Rel
Hum
%
Delta-T
°C
Wind Press
QNH
hPa
Press
MSL
hPa
Rain since
9am
mm
Dir  Spd
km/h
Gust
km/h
Spd
kts
Gust
kts
29/11:30pm 26.7 31.0 23.6 83 2.1 E 7 9 4 5 1011.8 1011.8 0.0
29/11:00pm 26.4 30.3 22.9 81 2.4 E 7 9 4 5 1011.7 1011.7 0.0
29/10:30pm 26.9 30.9 22.7 78 2.8 ESE 6 6 3 3 1012.0 1012.0 0.0
29/10:00pm 27.2 31.1 23.0 78 2.9 SE 7 9 4 5 1012.1 1012.1 0.0
29/09:30pm 27.2 31.4 23.4 80 2.6 ESE 7 7 4 4 1011.8 1011.8 0.0
29/09:00pm 27.1 31.3 23.1 79 2.7 E 6 7 3 4 1011.3 1011.3 0.0
29/08:30pm 27.4 31.5 23.2 78 2.9 E 7 9 4 5 1011.2 1011.2 0.0
29/08:00pm 27.6 31.0 23.4 78 2.9 ESE 11 13 6 7 1010.9 1010.9 0.0
29/07:30pm 27.7 31.3 23.7 79 2.7 ESE 11 15 6 8 1010.6 1010.6 0.0
29/07:00pm 27.7 31.5 23.5 78 2.9 E 9 11 5 6 1009.9 1009.9 0.0
29/06:30pm 28.1 31.6 23.5 76 3.2 E 11 15 6 8 1009.6 1009.6 0.0
29/06:00pm 28.3 31.0 22.8 72 3.7 E 13 19 7 10 1009.2 1009.2 0.0
29/05:30pm 28.8 31.3 23.2 71 3.8 ENE 15 20 8 11 1008.6 1008.6 0.0
29/05:00pm 29.3 32.1 23.7 72 3.9 ENE 15 20 8 11 1008.6 1008.6 0.0
29/04:30pm 28.9 30.9 22.9 70 4.1 ENE 17 20 9 11 1008.7 1008.7 0.0
29/04:00pm 29.6 31.4 23.3 69 4.3 ENE 19 26 10 14 1008.9 1008.9 0.0
29/03:30pm 29.7 31.3 23.2 68 4.5 ENE 20 28 11 15 1009.0 1009.0 0.0
29/03:00pm 30.2 31.6 22.9 65 5.0 ENE 20 26 11 14 1009.1 1009.1 0.0
29/02:30pm 30.1 31.9 23.3 67 4.7 ENE 19 26 10 14 1009.3 1009.3 0.0
29/02:00pm 30.1 31.6 23.0 65 4.9 ENE 20 30 11 16 1009.6 1009.6 0.0
29/01:30pm 31.2 32.9 23.0 61 5.6 ENE 19 24 10 13 1010.2 1010.2 0.0
29/01:00pm 30.6 32.8 23.3 65 5.0 NE 17 24 9 13 1010.7 1010.7 0.0
29/12:30pm 31.2 33.0 23.6 64 5.3 ENE 20 28 11 15 1011.3 1011.3 0.0
29/12:00pm 30.6 31.3 22.2 61 5.7 ENE 22 28 12 15 1011.7 1011.7 0.0
29/11:30am 31.2 32.6 22.5 60 5.9 ENE 19 26 10 14 1012.1 1012.1 0.0
29/11:00am 31.1 32.8 22.4 60 5.9 ENE 17 24 9 13 1012.4 1012.4 0.0
29/10:30am 30.5 31.6 21.3 58 6.2 ENE 17 24 9 13 1012.7 1012.7 0.0
29/10:00am 30.8 32.0 22.1 59 5.9 ENE 19 24 10 13 1013.0 1013.0 0.0
29/09:30am 30.4 32.3 22.0 60 5.7 ESE 15 20 8 11 1013.0 1013.0 0.0
29/09:00am 29.3 31.9 22.0 64 4.9 SSE 11 17 6 9 1013.2 1013.2 0.0
29/08:30am 28.7 31.2 22.4 68 4.3 SE 13 17 7 9 1013.2 1013.2 0.0
29/08:00am 28.0 31.0 22.7 73 3.6 S 11 17 6 9 1013.2 1013.2 0.0
29/07:30am 27.3 30.5 23.7 81 2.5 SSW 13 15 7 8 1012.8 1012.8 0.0
29/07:00am 26.5 30.4 23.6 84 2.0 S 9 15 5 8 1012.4 1012.4 0.0
29/06:30am 25.3 30.8 23.4 89 1.3 CALM 0 0 0 0 1012.1 1012.1 0.0
29/06:00am 25.0 29.1 22.9 88 1.4 SSW 6 7 3 4 1011.7 1011.7 0.0
29/05:30am 25.4 29.5 23.3 88 1.4 S 7 11 4 6 1011.5 1011.5 0.0
29/05:00am 25.6 29.4 23.5 88 1.4 S 9 11 5 6 1011.5 1011.5 0.0
29/04:30am 25.6 30.0 23.5 88 1.4 S 6 9 3 5 1011.3 1011.3 0.0
29/04:00am 24.9 29.7 22.2 85 1.8 CALM 0 0 0 0 1011.1 1011.1 0.0
29/03:30am 24.9 29.7 22.2 85 1.8 CALM 0 0 0 0 1011.1 1011.1 0.0
29/03:00am 25.1 30.2 22.6 86 1.7 CALM 0 0 0 0 1011.1 1011.1 0.0
29/02:30am 25.5 30.7 22.8 85 1.8 CALM 0 0 0 0 1011.2 1011.2 0.0
29/02:00am 26.0 30.3 22.7 82 2.2 SE 4 6 2 3 1011.4 1011.4 0.0
29/01:30am 26.6 30.7 23.3 82 2.3 SSE 7 11 4 6 1011.6 1011.6 0.0
29/01:00am 26.8 30.6 23.5 82 2.3 SSE 9 13 5 7 1012.1 1012.1 0.0
29/12:30am 26.9 31.1 23.4 81 2.4 SSE 7 11 4 6 1012.4 1012.4 0.0
29/12:00am 27.2 30.6 23.4 80 2.6 ESE 11 15 6 8 1012.9 1012.9 0.0
 
Date/Time
EST
Temp
°C
App
Temp
°C
Dew
Point
°C
Rel
Hum
%
Delta-T
°C
Wind Press
QNH
hPa
Press
MSL
hPa
Rain since
9am
mm
Dir  Spd
km/h
Gust
km/h
Spd
kts
Gust
kts
28/11:30pm 27.4 30.8 23.4 79 2.7 SE 11 15 6 8 1013.3 1013.3 0.0
28/11:00pm 27.3 31.7 23.5 80 2.6 SE 6 9 3 5 1013.6 1013.6 0.0
28/10:30pm 27.3 30.7 23.3 79 2.7 SE 11 13 6 7 1013.8 1013.8 0.0
28/10:00pm 27.5 30.5 23.3 78 2.9 ESE 13 19 7 10 1013.4 1013.4 0.0
28/09:30pm 27.8 30.3 23.2 76 3.1 SE 15 20 8 11 1013.3 1013.3 0.0
28/09:00pm 27.8 30.1 23.4 77 3.0 SE 17 22 9 12 1012.9 1012.9 0.0
28/08:30pm 27.8 29.7 23.4 77 3.0 SE 19 24 10 13 1012.4 1012.4 0.0
28/08:00pm 27.9 29.8 23.5 77 3.0 SE 19 26 10 14 1011.8 1011.8 0.0
28/07:30pm 27.9 29.7 23.5 77 3.0 ESE 20 24 11 13 1011.2 1011.2 0.0
28/07:00pm 27.9 29.8 23.7 78 2.9 ESE 20 26 11 14 1010.9 1010.9 0.0
28/06:30pm 28.1 29.6 23.7 77 3.0 ESE 22 30 12 16 1010.4 1010.4 0.0
28/06:00pm 28.7 29.6 23.4 73 3.6 E 24 32 13 17 1009.8 1009.8 0.0
28/05:30pm 29.2 30.3 23.6 72 3.9 E 24 32 13 17 1009.4 1009.4 0.0
28/05:00pm 29.4 30.1 23.6 71 4.0 E 26 33 14 18 1009.4 1009.4 0.0
28/04:30pm 29.2 29.9 23.6 72 3.9 E 26 33 14 18 1009.7 1009.7 0.0
28/04:00pm 29.8 30.7 24.0 71 4.0 E 26 33 14 18 1009.9 1009.9 0.0
28/03:30pm 29.9 31.1 23.8 70 4.2 E 24 33 13 18 1010.2 1010.2 0.0
28/03:00pm 30.7 31.8 23.6 66 4.9 E 24 35 13 19 1010.4 1010.4 0.0
28/02:30pm 30.5 31.1 23.4 66 4.9 ENE 26 35 14 19 1010.4 1010.4 0.0
28/02:00pm 31.3 32.1 24.4 66 4.8 E 28 39 15 21 1010.6 1010.6 0.0
28/01:30pm 30.7 30.3 23.1 64 5.2 E 30 37 16 20 1011.0 1011.0 0.0
28/01:00pm 30.0 29.7 23.2 67 4.7 ENE 30 37 16 20 1011.4 1011.4 0.0
28/12:30pm 30.3 29.7 22.7 64 5.2 E 30 37 16 20 1012.0 1012.0 0.0
28/12:00pm 30.3 30.7 23.2 65 4.9 E 26 33 14 18 1012.6 1012.6 0.0
28/11:30am 30.4 30.8 23.1 65 5.0 E 26 35 14 19 1013.1 1013.1 0.0
28/11:00am 30.5 31.4 23.4 66 4.9 ESE 24 33 13 18 1013.6 1013.6 0.0
28/10:30am 30.1 30.2 23.3 67 4.7 ESE 28 35 15 19 1013.9 1013.9 0.0
28/10:00am 30.4 31.3 23.3 66 4.9 E 24 33 13 18 1013.9 1013.9 0.0
28/09:30am 29.8 30.8 23.5 69 4.3 E 24 33 13 18 1013.9 1013.9 0.0
28/09:18am 30.4 31.8 23.6 67 4.7 E 22 33 12 18 1013.9 1013.9 0.0
28/09:00am 29.6 31.2 23.8 71 4.0 ESE 22 30 12 16 1013.9 1013.9 0.0
28/08:44am 28.7 30.8 23.8 75 3.4 ESE 19 26 10 14 1013.8 1013.8 0.0
28/08:30am 28.4 30.2 23.3 74 3.5 ESE 19 30 10 16 1013.6 1013.6 0.0
28/08:00am 28.5 30.8 23.4 74 3.5 SE 17 24 9 13 1013.4 1013.4 0.0
28/07:30am 28.2 31.0 23.6 76 3.2 SE 15 22 8 12 1013.2 1013.2 0.0
28/07:00am 27.5 30.6 23.5 79 2.7 SE 13 19 7 10 1012.7 1012.7 0.0
28/06:30am 27.0 30.8 23.5 81 2.4 SE 9 15 5 8 1012.3 1012.3 0.0
28/06:00am 26.7 30.1 23.4 82 2.3 SE 11 15 6 8 1011.7 1011.7 0.0
28/05:30am 26.7 29.7 23.4 82 2.3 SE 13 17 7 9 1011.0 1011.0 0.0
28/05:00am 26.9 29.8 23.2 80 2.5 ESE 13 17 7 9 1010.9 1010.9 0.0
28/04:52am 26.9 29.6 23.4 81 2.4 ESE 15 22 8 12 1010.9 1010.9 0.0
28/04:30am 27.0 29.6 23.3 80 2.5 ESE 15 19 8 10 1010.6 1010.6 0.0
28/04:25am 27.0 30.0 23.3 80 2.5 ESE 13 19 7 10 1010.6 1010.6 0.0
28/04:00am 27.1 29.3 23.3 80 2.6 ESE 17 26 9 14 1010.5 1010.5 0.0
28/03:30am 27.0 28.8 23.3 80 2.5 ESE 19 28 10 15 1010.2 1010.2 0.0
28/03:00am 26.9 28.5 23.2 80 2.5 ESE 20 28 11 15 1010.2 1010.2 0.0
28/02:30am 27.0 28.6 23.3 80 2.5 ESE 20 30 11 16 1010.6 1010.6 0.0
28/02:00am 27.0 28.5 23.0 79 2.7 ESE 20 28 11 15 1010.9 1010.9 0.0
28/01:30am 27.1 28.6 23.1 79 2.7 ESE 20 30 11 16 1011.1 1011.1 0.0
28/01:00am 27.1 28.1 22.9 78 2.9 ESE 22 32 12 17 1011.4 1011.4 0.0
28/12:30am 27.1 28.6 23.1 79 2.7 ESE 20 26 11 14 1011.7 1011.7 0.0
28/12:00am 27.2 28.3 23.0 78 2.9 ESE 22 30 12 16 1011.7 1011.7 0.0
 
Date/Time
EST
Temp
°C
App
Temp
°C
Dew
Point
°C
Rel
Hum
%
Delta-T
°C
Wind Press
QNH
hPa
Press
MSL
hPa
Rain since
9am
mm
Dir  Spd
km/h
Gust
km/h
Spd
kts
Gust
kts
27/11:30pm 27.1 28.5 22.9 78 2.9 ESE 20 28 11 15 1011.9 1011.9 0.0
27/11:00pm 27.1 28.2 23.1 79 2.7 ESE 22 28 12 15 1012.1 1012.1 0.0
27/10:30pm 27.0 28.1 23.0 79 2.7 ESE 22 30 12 16 1012.0 1012.0 0.0
27/10:00pm 27.2 27.5 23.0 78 2.9 ESE 26 35 14 19 1012.0 1012.0 0.0
27/09:30pm 27.3 28.1 23.1 78 2.9 ESE 24 35 13 19 1011.8 1011.8 0.0
27/09:00pm 27.4 28.2 23.2 78 2.9 ESE 24 35 13 19 1011.5 1011.5 0.0
27/08:30pm 27.2 27.5 23.0 78 2.9 ESE 26 35 14 19 1011.1 1011.1 0.0
27/08:00pm 27.3 28.1 23.1 78 2.9 ESE 24 32 13 17 1010.6 1010.6 0.0
27/07:30pm 27.3 28.7 22.9 77 3.0 ESE 20 28 11 15 1010.0 1010.0 0.0
27/07:00pm 27.5 28.9 22.9 76 3.1 ESE 20 26 11 14 1009.2 1009.2 0.0
27/06:30pm 27.8 29.1 22.7 74 3.5 ESE 20 30 11 16 1008.6 1008.6 0.0
27/06:00pm 28.2 28.9 22.9 73 3.6 E 24 32 13 17 1008.3 1008.3 0.0
27/05:30pm 29.0 28.8 22.7 69 4.3 E 28 35 15 19 1008.2 1008.2 0.0
27/05:00pm 29.2 29.1 22.9 69 4.3 ESE 28 37 15 20 1008.1 1008.1 0.0
27/04:30pm 29.4 28.8 22.6 67 4.6 E 30 39 16 21 1008.0 1008.0 0.0
27/04:00pm 30.0 29.7 23.2 67 4.7 E 30 39 16 21 1008.0 1008.0 0.0
27/03:30pm 30.2 29.9 22.6 63 5.2 E 28 35 15 19 1008.2 1008.2 0.0
27/03:00pm 30.4 30.5 22.6 63 5.3 E 26 35 14 19 1008.5 1008.5 0.0
27/02:30pm 31.0 31.3 22.9 62 5.6 E 26 35 14 19 1008.9 1008.9 0.0
27/02:00pm 30.4 29.6 22.3 62 5.5 E 30 35 16 19 1009.5 1009.5 0.0
27/01:30pm 30.0 30.2 22.7 65 5.0 E 26 35 14 19 1010.0 1010.0 0.0
27/01:00pm 30.0 29.2 21.7 61 5.6 E 28 35 15 19 1010.4 1010.4 0.0
27/12:30pm 30.6 30.3 22.5 62 5.5 E 28 33 15 18 1011.0 1011.0 0.0
27/12:00pm 30.9 31.6 23.0 62 5.4 E 24 32 13 17 1011.3 1011.3 0.0
27/11:30am 30.4 31.3 22.6 63 5.3 ENE 22 32 12 17 1011.4 1011.4 0.0
27/11:00am 30.1 31.1 22.8 65 5.0 ENE 22 30 12 16 1011.5 1011.5 0.0
27/10:30am 30.0 31.3 22.7 65 5.0 ENE 20 30 11 16 1011.7 1011.7 0.0
27/10:00am 29.8 31.1 20.9 59 5.9 ENE 15 22 8 12 1011.8 1011.8 0.0
27/09:30am 29.8 31.5 21.7 61 5.4 E 15 24 8 13 1011.9 1011.9 0.0
27/09:00am 29.5 31.2 21.7 63 5.2 SE 15 20 8 11 1012.0 1012.0 0.0
27/08:30am 28.9 30.9 22.2 67 4.5 ESE 15 22 8 12 1012.0 1012.0 0.0
27/08:00am 28.3 30.2 22.1 69 4.2 ESE 15 20 8 11 1011.8 1011.8 0.0
27/07:30am 27.7 29.4 22.4 73 3.6 E 17 20 9 11 1011.3 1011.3 0.0
27/07:00am 27.1 29.2 22.5 76 3.1 ESE 15 20 8 11 1011.0 1011.0 0.0

Other formats

Comma delimited format used in spreadsheet applications
http://www.bom.gov.au/fwo/IDQ60801/IDQ60801.94174.axf

JavaScript Object Notation format (JSON) in row-major order
http://www.bom.gov.au/fwo/IDQ60801/IDQ60801.94174.json

Data quality

Most of these data are generated automatically and are frequently updated. Quality checks on data are not normally performed. It is possible for incorrect values to appear. Refer to information at About Latest Weather Observations and please check the disclaimer before using these data.